Welcome!

Visit our other weather sites:

Template documentation
and downloads

And another site



from: Jul 18 2019 3:35 am until: Jul 19 2019 10:00 pm Excessive Heat Warning level: Moderate
Possible threat to life or property - Responsive action SHOULD be taken soon (within next hour)

Nearby METAR Reports

   
KAVP - Albrightsville, PA
Updated: Jul 18 2019 11:54 am
Overcast  
Overcast  
   Wind: NE 4.6 mph
Wind: NE 4.6 mph
Temperature: 78.8°F
Dew Point: 73.4°F
Humidity: 84%
Barometer: 29.93 inHg
Clouds: Overcast
Visibility: 10 mi
Cloud details: Few Clouds 244 m,
Mostly Cloudy 945 m,
Overcast 1829 m
KAVP 181654Z 05004KT 10SM FEW008 BKN031 OVC060 26/23 A2993 RMK AO2 RAE19 SLP124 P0000 T02610228
KIWA - Apache Junction, AZ
Updated: Jul 18 2019 11:55 am
Few Clouds  
Few Clouds  
   Wind: West 3.5 mph
Wind: West 3.5 mph
Temperature: 95°F
Dew Point: 51.8°F
Humidity: 23%
Barometer: 29.95 inHg
Clouds: Few Clouds
Visibility: 10 mi
Cloud details: Few Clouds 6096 m
KIWA 181655Z 28003KT 10SM FEW200 35/11 A2995
KPKB - Blue Rock, OH
Updated: Jul 18 2019 11:53 am
Overcast  
Overcast  
   Wind: Calm
Wind: Calm
Temperature: 80.6°F
Heat Index: 84.2°F
Dew Point: 73.4°F
Humidity: 79%
Barometer: 30.03 inHg
Clouds: Overcast
Visibility: 9 mi
Cloud details: Mostly Cloudy 396 m,
Overcast 732 m
KPKB 181653Z 00000KT 9SM BKN013 OVC024 27/23 A3003 RMK AO2 SLP160 T02670228
KHVN - Branford, CT
Updated: Jul 18 2019 12:06 pm
Light Rain, Mist, Overcast  
Light Rain, Mist, Overcast  
   Wind: East 4.6 mph
Wind: East 4.6 mph
Temperature: 77°F
Dew Point: 73.4°F
Humidity: 89%
Barometer: 29.92 inHg
Clouds: Overcast
Visibility: 6 mi
Cloud details: Partly Cloudy 122 m,
Mostly Cloudy 823 m,
Overcast 1067 m
KHVN 181706Z 09004KT 6SM -RA BR SCT004 BKN027 OVC035 25/23 A2992 RMK AO2 P0001 T02500233
KPHX - Carefree, AZ
Updated: Jul 18 2019 11:51 am
Few Clouds  
Few Clouds  
   Wind: ESE 5.8 mph
Wind: ESE 5.8 mph
Temperature: 96.8°F
Dew Point: 51.8°F
Humidity: 22%
Barometer: 29.91 inHg
Clouds: Few Clouds
Visibility: 10 mi
Cloud details: Few Clouds 7620 m
KPHX 181651Z 12005KT 10SM FEW250 36/11 A2991 RMK AO2 SLP105 T03560111
 

Script developed by  Saratoga-weather.org Adapted for the template by  Weerstation Leuven